createdAt,value
2019-03-11T00:00:09.544Z,0
2019-03-11T00:01:19.457Z,0
2019-03-11T00:02:29.375Z,0
2019-03-11T00:03:39.293Z,0
2019-03-11T00:04:49.209Z,0
2019-03-11T00:05:59.284Z,0
2019-03-11T00:07:09.208Z,0
2019-03-11T00:08:19.127Z,0
2019-03-11T00:09:29.041Z,0
2019-03-11T00:10:38.714Z,0
2019-03-11T00:11:48.734Z,0
2019-03-11T00:12:58.642Z,0
2019-03-11T00:14:08.552Z,0
2019-03-11T00:15:18.469Z,0
2019-03-11T00:16:28.125Z,0
2019-03-11T00:17:38.147Z,0
2019-03-11T00:18:48.065Z,0
2019-03-11T00:19:57.997Z,0
2019-03-11T00:21:07.929Z,0
2019-03-11T00:22:17.845Z,0
2019-03-11T00:23:27.852Z,0
2019-03-11T00:24:37.770Z,0
2019-03-11T00:25:47.680Z,0
2019-03-11T00:26:57.598Z,0
2019-03-11T00:28:07.529Z,0
2019-03-11T00:29:17.489Z,0
2019-03-11T00:30:27.402Z,0
2019-03-11T00:31:37.313Z,0
2019-03-11T00:32:47.291Z,0
2019-03-11T00:33:57.207Z,0
2019-03-11T00:35:07.170Z,0
2019-03-11T00:36:17.096Z,0
2019-03-11T00:37:27.011Z,0
2019-03-11T00:38:36.926Z,0
2019-03-11T00:39:46.841Z,0
2019-03-11T00:40:56.852Z,0
2019-03-11T00:42:06.764Z,0
2019-03-11T00:43:16.672Z,0
2019-03-11T00:44:26.591Z,0
2019-03-11T00:45:36.515Z,0
2019-03-11T00:46:46.435Z,0
2019-03-11T00:48:06.766Z,0
2019-03-11T00:49:16.678Z,0
2019-03-11T00:50:26.585Z,0
2019-03-11T00:51:36.493Z,0
2019-03-11T00:52:46.985Z,0
2019-03-11T00:53:56.977Z,0
2019-03-11T00:55:06.895Z,0
2019-03-11T00:56:16.886Z,0
2019-03-11T00:57:26.543Z,0
2019-03-11T00:58:36.568Z,0
2019-03-11T00:59:46.497Z,0
2019-03-11T01:00:56.415Z,0
2019-03-11T01:02:06.335Z,0
2019-03-11T01:03:15.995Z,0
2019-03-11T01:04:26.004Z,0
2019-03-11T01:05:35.916Z,0
2019-03-11T01:06:45.829Z,0
2019-03-11T01:07:55.741Z,0
2019-03-11T01:09:05.664Z,0
2019-03-11T01:10:15.697Z,0
2019-03-11T01:11:25.613Z,0
2019-03-11T01:12:35.525Z,0
2019-03-11T01:13:45.199Z,0
2019-03-11T01:14:55.117Z,0
2019-03-11T01:16:05.086Z,0
2019-03-11T01:17:15.000Z,0
2019-03-11T01:18:24.913Z,0
2019-03-11T01:19:34.854Z,0
2019-03-11T01:20:44.770Z,0
2019-03-11T01:21:54.731Z,0
2019-03-11T01:23:04.646Z,0
2019-03-11T01:24:14.580Z,0
2019-03-11T01:25:24.510Z,0
2019-03-11T01:26:34.425Z,0
2019-03-11T01:27:44.439Z,0
2019-03-11T01:28:54.357Z,0
2019-03-11T01:30:04.299Z,0
2019-03-11T01:31:14.209Z,0
2019-03-11T01:32:24.126Z,0
2019-03-11T01:33:34.147Z,0
2019-03-11T01:34:44.072Z,0
2019-03-11T01:35:53.993Z,0
2019-03-11T01:37:03.911Z,0
2019-03-11T01:38:13.828Z,0
2019-03-11T01:39:23.845Z,0
2019-03-11T01:40:33.765Z,0
2019-03-11T01:41:43.684Z,0
2019-03-11T01:42:56.470Z,0
2019-03-11T01:44:06.384Z,0
2019-03-11T01:45:16.366Z,0
2019-03-11T01:46:26.283Z,0
2019-03-11T01:47:36.251Z,0
2019-03-11T01:48:46.160Z,0
2019-03-11T01:49:56.080Z,0
2019-03-11T01:51:06.038Z,0
2019-03-11T01:52:15.971Z,0
2019-03-11T01:53:25.888Z,0
2019-03-11T01:54:35.802Z,0
2019-03-11T01:55:45.715Z,0
2019-03-11T01:56:55.724Z,0
2019-03-11T01:58:05.643Z,0
2019-03-11T01:59:15.557Z,0
2019-03-11T02:00:25.468Z,0
2019-03-11T02:01:35.379Z,0
2019-03-11T02:02:45.338Z,0
2019-03-11T02:03:55.266Z,0
2019-03-11T02:05:05.182Z,0
2019-03-11T02:06:15.091Z,0
2019-03-11T02:07:25.088Z,0
2019-03-11T02:08:35.097Z,0
2019-03-11T02:09:45.022Z,0
2019-03-11T02:10:54.932Z,0
2019-03-11T02:12:04.846Z,0
2019-03-11T02:13:14.755Z,0
2019-03-11T02:14:24.769Z,0
2019-03-11T02:15:34.678Z,0
2019-03-11T02:16:44.594Z,0
2019-03-11T02:17:54.503Z,0
2019-03-11T02:19:04.416Z,0
2019-03-11T02:20:14.425Z,0
2019-03-11T02:21:24.341Z,0
2019-03-11T02:22:34.258Z,0
2019-03-11T02:23:44.242Z,0
2019-03-11T02:24:54.181Z,0
2019-03-11T02:26:04.139Z,0
2019-03-11T02:27:14.060Z,0
2019-03-11T02:28:23.977Z,0
2019-03-11T02:29:33.902Z,0
2019-03-11T02:30:43.824Z,0
2019-03-11T02:31:53.830Z,0
2019-03-11T02:33:03.762Z,0
2019-03-11T02:34:13.700Z,0
2019-03-11T02:35:23.625Z,0
2019-03-11T02:36:33.565Z,0
2019-03-11T02:37:43.534Z,0
2019-03-11T02:38:53.461Z,0
2019-03-11T02:40:03.441Z,0
2019-03-11T02:41:13.418Z,0
2019-03-11T02:42:23.355Z,0
2019-03-11T02:43:33.381Z,0
2019-03-11T02:44:43.425Z,0
2019-03-11T02:45:53.393Z,0
2019-03-11T02:47:03.326Z,0
2019-03-11T02:48:13.261Z,0
2019-03-11T02:49:23.295Z,0
2019-03-11T02:50:33.273Z,0
2019-03-11T02:51:43.224Z,0
2019-03-11T02:52:53.161Z,0
2019-03-11T02:54:03.083Z,0
2019-03-11T02:55:13.210Z,0
2019-03-11T02:56:23.273Z,0
2019-03-11T02:57:33.209Z,0
2019-03-11T02:58:43.169Z,0
2019-03-11T02:59:53.103Z,0
2019-03-11T03:01:03.149Z,0
2019-03-11T03:02:12.809Z,0
2019-03-11T03:03:22.741Z,0
2019-03-11T03:04:32.184Z,0
2019-03-11T03:05:42.125Z,0
2019-03-11T03:06:52.127Z,0
2019-03-11T03:08:02.065Z,0
2019-03-11T03:09:12.001Z,0
2019-03-11T03:10:21.951Z,0
2019-03-11T03:11:31.882Z,0
2019-03-11T03:12:41.912Z,0
2019-03-11T03:13:51.873Z,0
2019-03-11T03:15:01.833Z,0
2019-03-11T03:16:11.754Z,0
2019-03-11T03:17:21.685Z,0
2019-03-11T03:18:31.708Z,0
2019-03-11T03:19:41.749Z,0
2019-03-11T03:20:51.774Z,0
2019-03-11T03:22:01.740Z,0
2019-03-11T03:23:11.410Z,0
2019-03-11T03:24:21.204Z,0
2019-03-11T03:25:41.559Z,0
2019-03-11T03:26:51.530Z,0
2019-03-11T03:28:02.292Z,0
2019-03-11T03:29:12.588Z,0
2019-03-11T03:30:22.603Z,0
2019-03-11T03:31:32.572Z,0
2019-03-11T03:32:42.705Z,0
2019-03-11T03:33:52.667Z,0
2019-03-11T03:35:03.273Z,0
2019-03-11T03:36:13.212Z,0
2019-03-11T03:37:22.885Z,0
2019-03-11T03:38:38.348Z,0
2019-03-11T03:39:48.289Z,0
2019-03-11T03:40:58.278Z,0
2019-03-11T03:42:08.206Z,0
2019-03-11T03:43:21.042Z,0
2019-03-11T03:44:30.744Z,0
2019-03-11T03:45:40.424Z,0
2019-03-11T03:46:50.408Z,0
2019-03-11T03:48:00.360Z,0
2019-03-11T03:49:10.359Z,0
2019-03-11T03:50:20.294Z,0
2019-03-11T03:51:30.222Z,0
2019-03-11T03:52:40.191Z,0
2019-03-11T03:53:50.122Z,0
2019-03-11T03:55:00.056Z,0
2019-03-11T03:56:09.985Z,0
2019-03-11T03:57:19.664Z,0
2019-03-11T03:58:29.678Z,0
2019-03-11T03:59:39.641Z,0
2019-03-11T04:00:49.309Z,0
2019-03-11T04:01:59.245Z,0
2019-03-11T04:03:09.175Z,0
2019-03-11T04:04:18.918Z,0
2019-03-11T04:05:28.861Z,0
2019-03-11T04:06:38.787Z,0
2019-03-11T04:07:48.715Z,0
2019-03-11T04:08:58.650Z,0
2019-03-11T04:10:08.700Z,0
2019-03-11T04:11:18.643Z,0
2019-03-11T04:12:28.570Z,0
2019-03-11T04:13:38.502Z,0
2019-03-11T04:14:48.453Z,0
2019-03-11T04:15:58.393Z,0
2019-03-11T04:17:08.323Z,0
2019-03-11T04:18:18.052Z,0
2019-03-11T04:19:31.663Z,0
2019-03-11T04:20:41.634Z,0
2019-03-11T04:21:51.409Z,0
2019-03-11T04:23:01.437Z,0
2019-03-11T04:24:11.392Z,0
2019-03-11T04:25:21.333Z,0
2019-03-11T04:26:31.287Z,0
2019-03-11T04:27:41.280Z,0
2019-03-11T04:28:51.214Z,0
2019-03-11T04:30:01.126Z,0
2019-03-11T04:31:11.048Z,0
2019-03-11T04:32:20.979Z,0
2019-03-11T04:33:31.048Z,0
2019-03-11T04:34:43.434Z,0
2019-03-11T04:35:53.371Z,0
2019-03-11T04:37:03.305Z,0
2019-03-11T04:38:13.218Z,0
2019-03-11T04:39:23.177Z,0
2019-03-11T04:40:33.088Z,0
2019-03-11T04:41:42.999Z,0
2019-03-11T04:42:52.933Z,0
2019-03-11T04:44:02.860Z,0
2019-03-11T04:45:14.592Z,0
2019-03-11T04:46:24.523Z,0
2019-03-11T04:47:34.435Z,0
2019-03-11T04:48:44.342Z,0
2019-03-11T04:49:54.249Z,0
2019-03-11T04:51:04.258Z,0
2019-03-11T04:52:13.919Z,0
2019-03-11T04:53:23.839Z,0
2019-03-11T04:54:33.743Z,0
2019-03-11T04:55:43.647Z,0
2019-03-11T04:56:53.419Z,0
2019-03-11T04:58:03.395Z,0
2019-03-11T04:59:13.300Z,0
2019-03-11T05:00:23.208Z,0
2019-03-11T05:01:33.124Z,0
2019-03-11T05:02:43.040Z,0
2019-03-11T05:03:53.570Z,0
2019-03-11T05:05:03.484Z,0
2019-03-11T05:06:13.391Z,0
2019-03-11T05:07:23.304Z,0
2019-03-11T05:08:33.259Z,4
2019-03-11T05:09:43.164Z,4
2019-03-11T05:10:53.071Z,0
2019-03-11T05:12:02.993Z,4
2019-03-11T05:13:12.901Z,4
2019-03-11T05:14:22.909Z,4
2019-03-11T05:15:32.821Z,4
2019-03-11T05:16:42.732Z,4
2019-03-11T05:17:55.642Z,8
2019-03-11T05:19:05.578Z,8
2019-03-11T05:20:15.597Z,8
2019-03-11T05:21:25.505Z,12
2019-03-11T05:22:35.412Z,12
2019-03-11T05:23:45.336Z,12
2019-03-11T05:24:55.238Z,16
2019-03-11T05:26:05.201Z,20
2019-03-11T05:27:15.115Z,24
2019-03-11T05:28:25.031Z,28
2019-03-11T05:29:34.688Z,32
2019-03-11T05:30:44.597Z,40
2019-03-11T05:31:54.614Z,48
2019-03-11T05:33:04.594Z,52
2019-03-11T05:34:14.503Z,60
2019-03-11T05:35:26.190Z,72
2019-03-11T05:36:36.103Z,80
2019-03-11T05:37:46.238Z,92
2019-03-11T05:38:56.143Z,104
2019-03-11T05:40:06.067Z,116
2019-03-11T05:41:16.405Z,132
2019-03-11T05:42:26.049Z,152
2019-03-11T05:43:36.060Z,168
2019-03-11T05:44:45.967Z,188
2019-03-11T05:45:55.889Z,208
2019-03-11T05:47:05.804Z,232
2019-03-11T05:48:15.717Z,256
2019-03-11T05:49:25.737Z,280
2019-03-11T05:50:35.641Z,304
2019-03-11T05:51:45.550Z,336
2019-03-11T05:52:55.473Z,360
2019-03-11T05:54:05.415Z,392
2019-03-11T05:55:15.395Z,424
2019-03-11T05:56:25.366Z,456
2019-03-11T05:57:35.278Z,484
2019-03-11T05:58:45.264Z,516
2019-03-11T05:59:55.175Z,548
2019-03-11T06:01:05.136Z,580
2019-03-11T06:02:15.041Z,616
2019-03-11T06:03:24.963Z,652
2019-03-11T06:04:34.874Z,688
2019-03-11T06:05:44.784Z,728
2019-03-11T06:06:54.479Z,768
2019-03-11T06:08:04.388Z,808
2019-03-11T06:09:14.298Z,848
2019-03-11T06:10:24.207Z,892
2019-03-11T06:11:34.116Z,932
2019-03-11T06:12:44.182Z,972
2019-03-11T06:13:54.097Z,1020
2019-03-11T06:15:04.007Z,1064
2019-03-11T06:16:13.666Z,1112
2019-03-11T06:17:23.321Z,1160
2019-03-11T06:18:33.332Z,1204
2019-03-11T06:19:43.245Z,1260
2019-03-11T06:20:53.182Z,1332
2019-03-11T06:22:03.140Z,1400
2019-03-11T06:23:13.102Z,1456
2019-03-11T06:24:23.186Z,1488
2019-03-11T06:25:33.173Z,1476
2019-03-11T06:26:43.154Z,1516
2019-03-11T06:27:53.070Z,1588
2019-03-11T06:29:02.989Z,1652
2019-03-11T06:30:15.294Z,1728
2019-03-11T06:31:25.214Z,1808
2019-03-11T06:32:34.875Z,1856
2019-03-11T06:33:44.784Z,1900
2019-03-11T06:34:54.696Z,1944
2019-03-11T06:36:04.658Z,1992
2019-03-11T06:37:14.591Z,2036
2019-03-11T06:38:24.495Z,2088
2019-03-11T06:39:34.404Z,2132
2019-03-11T06:40:45.927Z,2172
2019-03-11T06:41:56.112Z,2152
2019-03-11T06:43:05.776Z,2120
2019-03-11T06:44:15.446Z,2116
2019-03-11T06:45:25.353Z,2216
2019-03-11T06:46:35.260Z,2216
2019-03-11T06:47:45.005Z,2264
2019-03-11T06:48:54.917Z,2460
2019-03-11T06:50:04.817Z,2508
2019-03-11T06:51:14.496Z,2532
2019-03-11T06:52:24.166Z,2560
2019-03-11T06:53:34.228Z,2640
2019-03-11T06:54:44.137Z,2700
2019-03-11T06:55:54.079Z,2736
2019-03-11T06:57:03.997Z,2776
2019-03-11T06:58:13.904Z,2812
2019-03-11T06:59:23.981Z,2844
2019-03-11T07:00:33.895Z,2880
2019-03-11T07:01:43.812Z,2912
2019-03-11T07:02:53.473Z,2948
2019-03-11T07:04:03.387Z,2980
2019-03-11T07:05:24.904Z,3020
2019-03-11T07:06:34.818Z,3056
2019-03-11T07:07:44.727Z,3092
2019-03-11T07:08:54.634Z,3128
2019-03-11T07:10:04.312Z,3164
2019-03-11T07:11:14.311Z,3180
2019-03-11T07:12:24.234Z,3224
2019-03-11T07:13:34.146Z,3260
2019-03-11T07:14:44.063Z,3292
2019-03-11T07:15:53.986Z,3328
2019-03-11T07:17:04.681Z,3332
2019-03-11T07:18:14.341Z,3388
2019-03-11T07:19:24.251Z,3420
2019-03-11T07:20:34.175Z,3440
2019-03-11T07:21:44.097Z,3332
2019-03-11T07:22:54.104Z,3536
2019-03-11T07:24:04.016Z,3524
2019-03-11T07:25:13.928Z,3220
2019-03-11T07:26:23.916Z,3264
2019-03-11T07:27:35.017Z,3464
2019-03-11T07:28:45.061Z,3448
2019-03-11T07:29:54.721Z,3356
2019-03-11T07:31:04.632Z,3548
2019-03-11T07:32:14.537Z,3780
2019-03-11T07:33:24.463Z,3748
2019-03-11T07:34:34.473Z,3804
2019-03-11T07:35:44.382Z,3868
2019-03-11T07:36:54.298Z,3888
2019-03-11T07:38:04.249Z,3916
2019-03-11T07:39:13.685Z,3944
2019-03-11T07:40:36.125Z,3968
2019-03-11T07:41:46.048Z,3984
2019-03-11T07:42:55.971Z,3988
2019-03-11T07:44:05.894Z,3988
2019-03-11T07:45:15.812Z,3960
2019-03-11T07:46:25.820Z,3968
2019-03-11T07:47:35.749Z,4008
2019-03-11T07:48:45.660Z,4024
2019-03-11T07:49:55.579Z,4052
2019-03-11T07:51:05.536Z,4128
2019-03-11T07:52:15.209Z,4188
2019-03-11T07:53:25.128Z,4228
2019-03-11T07:54:42.874Z,4272
2019-03-11T07:55:52.799Z,3748
2019-03-11T07:57:02.829Z,3624
2019-03-11T07:58:12.747Z,3540
2019-03-11T07:59:22.656Z,3676
2019-03-11T08:00:32.321Z,3940
2019-03-11T08:01:42.318Z,4460
2019-03-11T08:02:52.397Z,4468
2019-03-11T08:04:02.304Z,4500
2019-03-11T08:05:12.221Z,4492
2019-03-11T08:06:26.076Z,4436
2019-03-11T08:07:36.015Z,4424
2019-03-11T08:08:46.077Z,4600
2019-03-11T08:09:55.994Z,4612
2019-03-11T08:11:05.900Z,4676
2019-03-11T08:12:15.810Z,4708
2019-03-11T08:13:25.719Z,4740
2019-03-11T08:14:35.728Z,4764
2019-03-11T08:15:45.431Z,4792
2019-03-11T08:16:55.343Z,4820
2019-03-11T08:18:05.259Z,4844
2019-03-11T08:19:15.165Z,4876
2019-03-11T08:20:25.136Z,4888
2019-03-11T08:21:35.045Z,4944
2019-03-11T08:22:44.959Z,4992
2019-03-11T08:23:54.868Z,5056
2019-03-11T08:25:04.793Z,5120
2019-03-11T08:26:14.881Z,5172
2019-03-11T08:27:24.787Z,5248
2019-03-11T08:28:34.701Z,5340
2019-03-11T08:29:44.616Z,5504
2019-03-11T08:30:54.533Z,5728
2019-03-11T08:32:04.450Z,6076
2019-03-11T08:33:14.366Z,6492
2019-03-11T08:34:24.286Z,6840
2019-03-11T08:35:34.210Z,7060
2019-03-11T08:36:44.136Z,7268
2019-03-11T08:37:53.811Z,7544
2019-03-11T08:39:03.744Z,7812
2019-03-11T08:40:13.665Z,7996
2019-03-11T08:41:23.582Z,8128
2019-03-11T08:42:33.497Z,8388
2019-03-11T08:43:43.276Z,8852
2019-03-11T08:44:53.211Z,9500
2019-03-11T08:46:03.156Z,10228
2019-03-11T08:47:13.086Z,10904
2019-03-11T08:48:23.000Z,11404
2019-03-11T08:49:32.907Z,12120
2019-03-11T08:50:42.851Z,10916
2019-03-11T08:51:52.514Z,10464
2019-03-11T08:53:02.437Z,9836
2019-03-11T08:54:12.350Z,8996
2019-03-11T08:55:22.373Z,8040
2019-03-11T08:56:32.282Z,7084
2019-03-11T08:57:44.932Z,6228
2019-03-11T08:58:54.847Z,5604
2019-03-11T09:00:04.781Z,5188
2019-03-11T09:01:14.449Z,4908
2019-03-11T09:02:24.377Z,4800
2019-03-11T09:03:34.289Z,4860
2019-03-11T09:04:44.203Z,5112
2019-03-11T09:05:54.116Z,5516
2019-03-11T09:07:04.082Z,6064
2019-03-11T09:08:13.995Z,7024
2019-03-11T09:09:23.916Z,7620
2019-03-11T09:10:34.376Z,10112
2019-03-11T09:11:44.290Z,10128
2019-03-11T09:12:54.369Z,9996
2019-03-11T09:14:04.292Z,9832
2019-03-11T09:15:13.953Z,9652
2019-03-11T09:16:23.881Z,7736
2019-03-11T09:17:33.801Z,7640
2019-03-11T09:18:43.723Z,6656
2019-03-11T09:19:53.638Z,6452
2019-03-11T09:21:04.870Z,7348
2019-03-11T09:22:14.974Z,7744
2019-03-11T09:23:24.893Z,6976
2019-03-11T09:24:34.913Z,6388
2019-03-11T09:25:44.852Z,6708
2019-03-11T09:26:54.771Z,7296
2019-03-11T09:28:04.690Z,7720
2019-03-11T09:29:14.655Z,5456
2019-03-11T09:30:24.587Z,5364
2019-03-11T09:31:34.509Z,5396
2019-03-11T09:32:44.433Z,5352
2019-03-11T09:33:54.351Z,5260
2019-03-11T09:35:04.276Z,5408
2019-03-11T09:36:14.189Z,5628
2019-03-11T09:37:24.101Z,6088
2019-03-11T09:38:33.782Z,6568
2019-03-11T09:39:43.695Z,8460
2019-03-11T09:40:54.254Z,8216
2019-03-11T09:42:04.198Z,8604
2019-03-11T09:43:14.117Z,7456
2019-03-11T09:44:24.026Z,7804
2019-03-11T09:45:33.951Z,8296
2019-03-11T09:46:43.872Z,8720
2019-03-11T09:47:54.671Z,11196
2019-03-11T09:49:04.713Z,13096
2019-03-11T09:50:14.626Z,11180
2019-03-11T09:51:24.559Z,12684
2019-03-11T09:52:34.479Z,14512
2019-03-11T09:53:44.500Z,17312
2019-03-11T09:54:54.417Z,17536
2019-03-11T09:56:05.037Z,17760
2019-03-11T09:57:17.333Z,17060
2019-03-11T09:58:27.255Z,15276
2019-03-11T09:59:37.199Z,12968
2019-03-11T10:00:47.133Z,10724
2019-03-11T10:01:57.053Z,8856
2019-03-11T10:03:06.976Z,7500
2019-03-11T10:04:16.900Z,6648
2019-03-11T10:05:26.973Z,6148
2019-03-11T10:06:36.964Z,6612
2019-03-11T10:07:47.085Z,10100
2019-03-11T10:08:57.155Z,10196
2019-03-11T10:10:07.084Z,10344
2019-03-11T10:11:16.829Z,10604
2019-03-11T10:12:26.751Z,10816
2019-03-11T10:13:36.669Z,10936
2019-03-11T10:14:46.598Z,11196
2019-03-11T10:15:56.520Z,11524
2019-03-11T10:17:06.548Z,12152
2019-03-11T10:18:16.464Z,12968
2019-03-11T10:19:26.390Z,13660
2019-03-11T10:20:36.307Z,13728
2019-03-11T10:21:46.229Z,14160
2019-03-11T10:22:56.199Z,15352
2019-03-11T10:24:06.636Z,16380
2019-03-11T10:25:16.570Z,17440
2019-03-11T10:26:26.495Z,17728
2019-03-11T10:27:36.412Z,17952
2019-03-11T10:28:46.328Z,21024
2019-03-11T10:29:56.257Z,20384
2019-03-11T10:31:05.928Z,19968
2019-03-11T10:32:15.847Z,19232
2019-03-11T10:33:25.794Z,18944
2019-03-11T10:34:35.814Z,18208
2019-03-11T10:35:45.735Z,17632
2019-03-11T10:36:55.691Z,17632
2019-03-11T10:38:05.610Z,17888
2019-03-11T10:39:15.536Z,18304
2019-03-11T10:40:25.562Z,18592
2019-03-11T10:41:35.517Z,18848
2019-03-11T10:42:45.445Z,18912
2019-03-11T10:43:55.366Z,19072
2019-03-11T10:45:05.310Z,19424
2019-03-11T10:46:15.382Z,19936
2019-03-11T10:47:25.315Z,20000
2019-03-11T10:48:44.216Z,20384
2019-03-11T10:49:54.163Z,21056
2019-03-11T10:51:04.531Z,21248
2019-03-11T10:52:14.785Z,21056
2019-03-11T10:53:24.716Z,20960
2019-03-11T10:54:34.672Z,21248
2019-03-11T10:55:44.614Z,21472
2019-03-11T10:56:54.539Z,21408
2019-03-11T10:58:04.617Z,21184
2019-03-11T10:59:14.542Z,20928
2019-03-11T11:00:24.470Z,20608
2019-03-11T11:01:34.400Z,20672
2019-03-11T11:02:44.322Z,20832
2019-03-11T11:03:54.250Z,20672
2019-03-11T11:05:04.178Z,20352
2019-03-11T11:06:14.136Z,20064
2019-03-11T11:07:24.975Z,19712
2019-03-11T11:08:34.898Z,19392
2019-03-11T11:09:44.818Z,19232
2019-03-11T11:10:54.743Z,19008
2019-03-11T11:12:04.668Z,18560
2019-03-11T11:13:14.595Z,17888
2019-03-11T11:14:24.530Z,17312
2019-03-11T11:15:34.606Z,17408
2019-03-11T11:16:46.341Z,17664
2019-03-11T11:17:56.461Z,17664
2019-03-11T11:19:06.383Z,17344
2019-03-11T11:20:16.310Z,17024
2019-03-11T11:21:26.236Z,16752
2019-03-11T11:22:36.168Z,17088
2019-03-11T11:23:46.091Z,17344
2019-03-11T11:24:56.042Z,17632
2019-03-11T11:26:05.966Z,17856
2019-03-11T11:27:15.891Z,18464
2019-03-11T11:28:25.815Z,18880
2019-03-11T11:29:35.740Z,19872
2019-03-11T11:30:45.674Z,22560
2019-03-11T11:31:55.607Z,22144
2019-03-11T11:33:05.533Z,22368
2019-03-11T11:34:15.462Z,21440
2019-03-11T11:35:25.396Z,21568
2019-03-11T11:36:35.328Z,22080
2019-03-11T11:37:45.251Z,22784
2019-03-11T11:38:55.290Z,23680
2019-03-11T11:40:05.235Z,24896
2019-03-11T11:41:16.530Z,24064
2019-03-11T11:42:26.628Z,22944
2019-03-11T11:43:36.556Z,21568
2019-03-11T11:44:46.481Z,20768
2019-03-11T11:45:56.414Z,19936
2019-03-11T11:47:06.336Z,20512
2019-03-11T11:48:16.264Z,19552
2019-03-11T11:49:26.188Z,18816
2019-03-11T11:50:36.124Z,18240
2019-03-11T11:51:46.052Z,17888
2019-03-11T11:52:55.983Z,17408
2019-03-11T11:54:05.946Z,17344
2019-03-11T11:55:15.630Z,17568
2019-03-11T11:56:25.610Z,18304
2019-03-11T11:57:35.544Z,19424
2019-03-11T11:58:47.937Z,20800
2019-03-11T12:00:01.554Z,21760
2019-03-11T12:01:11.480Z,21504
2019-03-11T12:02:21.533Z,21344
2019-03-11T12:03:31.457Z,21280
2019-03-11T12:04:41.387Z,21856
2019-03-11T12:05:51.321Z,22336
2019-03-11T12:07:01.254Z,25408
2019-03-11T12:08:11.381Z,26592
2019-03-11T12:09:21.317Z,22720
2019-03-11T12:10:31.249Z,23264
2019-03-11T12:11:41.174Z,23424
2019-03-11T12:12:51.097Z,23872
2019-03-11T12:14:01.085Z,24352
2019-03-11T12:15:11.025Z,22720
2019-03-11T12:16:20.957Z,21728
2019-03-11T12:17:30.892Z,20672
2019-03-11T12:18:40.820Z,20288
2019-03-11T12:19:50.852Z,23936
2019-03-11T12:21:00.782Z,19072
2019-03-11T12:22:10.704Z,18720
2019-03-11T12:23:20.635Z,19680
2019-03-11T12:24:30.570Z,19680
2019-03-11T12:25:40.559Z,19136
2019-03-11T12:26:51.120Z,16228
2019-03-11T12:28:03.250Z,15736
2019-03-11T12:29:13.174Z,15976
2019-03-11T12:30:23.103Z,16360
2019-03-11T12:31:33.230Z,16928
2019-03-11T12:32:43.167Z,17536
2019-03-11T12:33:53.100Z,17568
2019-03-11T12:35:03.029Z,18688
2019-03-11T12:36:12.971Z,19360
2019-03-11T12:37:22.953Z,19744
2019-03-11T12:38:33.789Z,20064
2019-03-11T12:39:43.725Z,20288
2019-03-11T12:40:53.651Z,22176
2019-03-11T12:42:03.575Z,20608
2019-03-11T12:43:13.556Z,20768
2019-03-11T12:44:23.480Z,20832
2019-03-11T12:45:33.419Z,20096
2019-03-11T12:46:43.350Z,19616
2019-03-11T12:47:53.037Z,18272
2019-03-11T12:49:02.831Z,17184
2019-03-11T12:50:14.701Z,17248
2019-03-11T12:51:24.838Z,18624
2019-03-11T12:52:34.774Z,20576
2019-03-11T12:53:44.697Z,20800
2019-03-11T12:54:54.729Z,19200
2019-03-11T12:56:04.651Z,17952
2019-03-11T12:57:14.596Z,17600
2019-03-11T12:58:24.534Z,17920
2019-03-11T12:59:40.407Z,18240
2019-03-11T13:00:50.708Z,18560
2019-03-11T13:02:00.637Z,18528
2019-03-11T13:03:10.571Z,17856
2019-03-11T13:04:20.497Z,17600
2019-03-11T13:05:30.420Z,17728
2019-03-11T13:06:40.511Z,18080
2019-03-11T13:07:50.449Z,19232
2019-03-11T13:09:00.378Z,25504
2019-03-11T13:10:10.315Z,21696
2019-03-11T13:11:20.366Z,22208
2019-03-11T13:12:30.438Z,20224
2019-03-11T13:13:40.373Z,19936
2019-03-11T13:14:50.299Z,19360
2019-03-11T13:16:00.222Z,19648
2019-03-11T13:17:10.188Z,18976
2019-03-11T13:18:20.220Z,17792
2019-03-11T13:19:30.146Z,17248
2019-03-11T13:20:40.079Z,17408
2019-03-11T13:21:49.756Z,18144
2019-03-11T13:22:59.694Z,18464
2019-03-11T13:24:09.739Z,18144
2019-03-11T13:25:19.671Z,16896
2019-03-11T13:26:29.601Z,16032
2019-03-11T13:27:39.550Z,16404
2019-03-11T13:28:49.485Z,17408
2019-03-11T13:29:59.462Z,18112
2019-03-11T13:31:09.389Z,17504
2019-03-11T13:32:19.315Z,16292
2019-03-11T13:33:29.244Z,15608
2019-03-11T13:34:38.938Z,15364
2019-03-11T13:35:48.979Z,14976
2019-03-11T13:36:58.914Z,16164
2019-03-11T13:38:08.848Z,15196
2019-03-11T13:39:18.776Z,14968
2019-03-11T13:40:28.699Z,15184
2019-03-11T13:41:38.622Z,15168
2019-03-11T13:42:48.548Z,14684
2019-03-11T13:43:58.474Z,14912
2019-03-11T13:45:08.402Z,14804
2019-03-11T13:46:18.332Z,14972
2019-03-11T13:47:28.303Z,20480
2019-03-11T13:48:38.279Z,16188
2019-03-11T13:49:47.966Z,12624
2019-03-11T13:50:57.894Z,12752
2019-03-11T13:52:07.568Z,20448
2019-03-11T13:53:17.537Z,17472
2019-03-11T13:54:27.456Z,12916
2019-03-11T13:55:37.384Z,31200
2019-03-11T13:56:47.305Z,21536
2019-03-11T13:57:57.227Z,21024
2019-03-11T13:59:07.272Z,14840
2019-03-11T14:00:17.196Z,18528
2019-03-11T14:01:28.646Z,15112
2019-03-11T14:02:38.575Z,22176
2019-03-11T14:03:48.526Z,26272
2019-03-11T14:04:58.500Z,16736
2019-03-11T14:06:08.445Z,14196
2019-03-11T14:07:18.365Z,18816
2019-03-11T14:08:28.291Z,14468
2019-03-11T14:09:38.219Z,15404
2019-03-11T14:10:48.240Z,15640
2019-03-11T14:11:58.158Z,14700
2019-03-11T14:13:08.097Z,14656
2019-03-11T14:14:18.044Z,15360
2019-03-11T14:15:27.970Z,16736
2019-03-11T14:16:37.948Z,15096
2019-03-11T14:17:47.893Z,15580
2019-03-11T14:18:57.816Z,13500
2019-03-11T14:20:07.744Z,13612
2019-03-11T14:21:27.456Z,13092
2019-03-11T14:22:37.495Z,20224
2019-03-11T14:23:47.426Z,13856
2019-03-11T14:24:57.394Z,18592
2019-03-11T14:26:07.630Z,15708
2019-03-11T14:27:17.551Z,13220
2019-03-11T14:28:27.527Z,13192
2019-03-11T14:29:37.449Z,13224
2019-03-11T14:30:47.373Z,13620
2019-03-11T14:31:57.294Z,13584
2019-03-11T14:33:07.259Z,14580
2019-03-11T14:34:17.341Z,19008
2019-03-11T14:35:27.269Z,27200
2019-03-11T14:36:37.196Z,15340
2019-03-11T14:37:46.883Z,22176
2019-03-11T14:38:56.805Z,21344
2019-03-11T14:40:06.625Z,13440
2019-03-11T14:41:16.547Z,18944
2019-03-11T14:42:26.535Z,13368
2019-03-11T14:43:36.486Z,26144
2019-03-11T14:44:46.414Z,14216
2019-03-11T14:45:56.453Z,14064
2019-03-11T14:47:06.405Z,14496
2019-03-11T14:48:16.332Z,15488
2019-03-11T14:49:26.255Z,42016
2019-03-11T14:50:36.245Z,37824
2019-03-11T14:51:46.228Z,42496
2019-03-11T14:52:56.153Z,25792
2019-03-11T14:54:06.072Z,15524
2019-03-11T14:55:16.009Z,34112
2019-03-11T14:56:26.004Z,30752
2019-03-11T14:57:36.037Z,18816
2019-03-11T14:58:45.961Z,14172
2019-03-11T14:59:55.888Z,14100
2019-03-11T15:01:05.562Z,14524
2019-03-11T15:02:15.490Z,25408
2019-03-11T15:03:25.472Z,27584
2019-03-11T15:04:35.417Z,28608
2019-03-11T15:05:45.401Z,36224
2019-03-11T15:06:55.341Z,32512
2019-03-11T15:08:05.273Z,28320
2019-03-11T15:09:15.301Z,22560
2019-03-11T15:10:25.234Z,27360
2019-03-11T15:11:35.168Z,36480
2019-03-11T15:12:45.195Z,37120
2019-03-11T15:13:55.135Z,32640
2019-03-11T15:15:05.219Z,35648
2019-03-11T15:16:17.416Z,37184
2019-03-11T15:17:27.593Z,43744
2019-03-11T15:18:37.534Z,44000
2019-03-11T15:19:47.523Z,43360
2019-03-11T15:20:57.552Z,45024
2019-03-11T15:22:07.481Z,44544
2019-03-11T15:23:27.495Z,41728
2019-03-11T15:24:37.452Z,40736
2019-03-11T15:25:47.386Z,40224
2019-03-11T15:26:57.420Z,15328
2019-03-11T15:28:07.358Z,28000
2019-03-11T15:29:17.296Z,18016
2019-03-11T15:30:27.246Z,21504
2019-03-11T15:31:37.178Z,10488
2019-03-11T15:32:47.107Z,8832
2019-03-11T15:33:57.048Z,8804
2019-03-11T15:35:06.976Z,13792
2019-03-11T15:36:16.903Z,10844
2019-03-11T15:37:27.424Z,9240
2019-03-11T15:38:37.517Z,8436
2019-03-11T15:39:47.447Z,8240
2019-03-11T15:40:57.428Z,7980
2019-03-11T15:42:10.079Z,7660
2019-03-11T15:43:20.060Z,7196
2019-03-11T15:44:32.388Z,7060
2019-03-11T15:45:46.203Z,7304
2019-03-11T15:46:56.582Z,7284
2019-03-11T15:48:06.644Z,7116
2019-03-11T15:49:16.684Z,6684
2019-03-11T15:50:26.720Z,7372
2019-03-11T15:51:44.100Z,6452
2019-03-11T15:52:54.028Z,6448
2019-03-11T15:54:03.983Z,6372
2019-03-11T15:55:13.918Z,5964